Time Latitude Longitude Accuracy (66% radius in meters) Altitude (meters) Speed (km/hour) Bearing (degrees) Battery (%) GPS flag
08:40:51 60.370982 29.556262 6 76 0 141.64253234863 82 1 delete
08:40:38 60.371004 29.556296 4 80 0 141.64253234863 82 1 delete
08:40:25 60.371017 29.556308 4 83 0 141.64253234863 82 1 delete
08:40:13 60.371026 29.556345 8 85 0 130.27215576172 82 1 delete
08:40:02 60.370994 29.556342 6 96 0 51.316715240479 82 1 delete
08:40:01 60.370988 29.556340 6 95 0 51.316715240479 82 1 delete
08:39:49 60.370953 29.556352 6 80 0 51.316715240479 82 1 delete
08:39:37 60.370951 29.556324 4 78 0 51.316715240479 82 1 delete
08:39:24 60.370952 29.556256 4 80 0 51.316715240479 82 1 delete
08:39:12 60.370942 29.556274 8 73 0 44.227962493896 82 1 delete
08:39:10 60.370953 29.556304 6 71 0 44.227962493896 82 1 delete
08:39:02 60.370998 29.556357 12 82 0 44.227962493896 82 1 delete
08:38:59 60.371023 29.556341 8 84 0 44.227962493896 82 1 delete
08:38:47 60.371061 29.556296 8 78 0 94.677200317383 82 1 delete
08:38:35 60.371045 29.556318 6 68 0 94.677200317383 82 1 delete
08:38:23 60.371056 29.556334 8 82 0.048210725188255 332.42993164062 82 1 delete
08:38:22 60.371050 29.556345 8 86 0 24.021646499634 82 1 delete
08:38:11 60.371050 29.556387 12 72 0 280.63265991211 82 1 delete
08:37:46 60.371048 29.556435 8 54 0 7.2256002426147 82 1 delete
08:37:33 60.371029 29.556441 8 46 0 184.95761108398 82 1 delete
08:37:26 60.371022 29.556418 12 64 0.38052850961685 11.822479248047 82 1 delete
08:37:10 60.370980 29.556361 6 86 0 5.9791231155396 82 1 delete
08:37:08 60.370990 29.556343 8 84 0 5.9791231155396 82 1 delete
08:36:56 60.370988 29.556302 6 91 0 181.67385864258 85 1 delete
08:36:43 60.370969 29.556321 8 76 0 181.67385864258 85 1 delete
08:36:31 60.370972 29.556241 6 90 0 260.95104980469 85 1 delete
08:36:19 60.370970 29.556246 8 91 0 224.59742736816 85 1 delete
08:36:08 60.370989 29.556265 6 78 0 8.0136585235596 85 1 delete
08:36:07 60.370992 29.556274 6 77 0 8.0136585235596 85 1 delete
08:35:55 60.370998 29.556330 4 78 0.31289857625961 325.88809204102 85 1 delete
08:35:51 60.370997 29.556355 6 75 0 308.91500854492 85 1 delete
08:35:43 60.370980 29.556418 6 79 0.34250274300575 307.95483398438 85 1 delete
08:35:31 60.370966 29.556424 8 75 0 289.45233154297 85 1 delete
08:35:30 60.370966 29.556428 4 77 0 289.45233154297 85 1 delete
08:35:18 60.370956 29.556499 4 78 0 257.15811157227 85 1 delete
08:35:05 60.370968 29.556520 4 75 0 331.37097167969 85 1 delete
08:35:04 60.370969 29.556517 4 76 0 331.37097167969 85 1 delete
08:34:53 60.370990 29.556495 8 81 0 331.37097167969 85 1 delete
08:34:42 60.371015 29.556502 8 82 1.1419345140457 304.87850952148 85 1 delete
08:34:40 60.371012 29.556530 6 83 1.0368583202362 300.78866577148 85 1 delete
08:34:37 60.370998 29.556591 8 90 0 216.5619354248 85 1 delete
08:34:33 60.370965 29.556663 8 89 0 216.5619354248 85 1 delete
08:34:28 60.370924 29.556707 4 67 0 216.5619354248 85 1 delete
08:34:22 60.370920 29.556708 6 78 0 216.5619354248 85 1 delete
08:34:15 60.370900 29.556666 6 72 0 216.5619354248 85 1 delete
08:34:03 60.370875 29.556668 6 69 0 216.5619354248 85 1 delete
08:33:51 60.370861 29.556766 8 74 0 216.5619354248 85 1 delete
08:33:41 60.370873 29.556719 4 77 0 216.5619354248 85 1 delete
08:33:37 60.370888 29.556668 4 76 0 216.5619354248 85 1 delete
08:33:30 60.370902 29.556645 8 77 0 314.14663696289 85 1 delete